Time;durP1;ratioP1;P1;durP2;ratioP2;P2;SDS_P1;SDS_P2;PMS_P1;PMS_P2;Temp;Humidity;BMP_temperature;BMP_pressure;BME280_temperature;BME280_humidity;BME280_pressure;Samples;Min_cycle;Max_cycle;Signal;HPM_P1;HPM_P2
2022/11/24 00:01:21;;;;;;;29.75;28.65;;;7.90;94.80;;;;;;5030365;28;20038;-80
2022/11/24 00:03:58;;;;;;;31.73;30.52;;;7.90;94.70;;;;;;5030357;28;20016;-79
2022/11/24 00:06:25;;;;;;;29.25;28.15;;;7.90;94.70;;;;;;5030318;28;20041;-80
2022/11/24 00:08:51;;;;;;;26.77;25.77;;;8.00;94.80;;;;;;5030285;28;20026;-80
2022/11/24 00:11:22;;;;;;;26.67;25.67;;;8.00;94.80;;;;;;5029052;28;20033;-79
2022/11/24 00:13:48;;;;;;;27.60;26.50;;;8.00;94.70;;;;;;5030327;28;20474;-80
2022/11/24 00:16:21;;;;;;;24.38;23.38;;;8.10;94.80;;;;;;5029436;28;20067;-80
2022/11/24 00:18:49;;;;;;;23.10;22.20;;;8.10;94.80;;;;;;5029051;28;20025;-80
2022/11/24 00:21:16;;;;;;;26.02;25.02;;;8.20;94.80;;;;;;5029996;28;20025;-79
2022/11/24 00:23:42;;;;;;;22.92;22.02;;;8.30;94.80;;;;;;5028726;28;20048;-79
2022/11/24 00:26:13;;;;;;;26.35;25.35;;;8.30;94.70;;;;;;5029294;28;20043;-80
2022/11/24 00:28:40;;;;;;;26.10;25.10;;;8.40;94.70;;;;;;5029852;28;20038;-80
2022/11/24 00:31:21;;;;;;;23.88;22.98;;;8.30;94.70;;;;;;5028589;28;20087;-80
2022/11/24 00:33:48;;;;;;;22.77;21.88;;;8.30;94.70;;;;;;5061571;28;20112;-76
2022/11/24 00:36:15;;;;;;;22.20;21.30;;;8.30;94.70;;;;;;5029296;28;20612;-76
2022/11/24 00:38:41;;;;;;;24.52;23.52;;;8.20;94.60;;;;;;5029434;28;20037;-75
2022/11/24 00:41:07;;;;;;;22.23;21.33;;;8.20;94.60;;;;;;5028294;28;20072;-76
2022/11/24 00:43:32;;;;;;;23.10;22.20;;;8.20;94.70;;;;;;5029279;28;20536;-75
2022/11/24 00:45:58;;;;;;;22.10;21.20;;;8.10;94.70;;;;;;5027895;28;20117;-76
2022/11/24 00:48:24;;;;;;;22.20;21.30;;;8.00;94.70;;;;;;5044280;28;20084;-75
2022/11/24 00:51:01;;;;;;;20.08;19.27;;;8.00;94.70;;;;;;5027975;28;20044;-75
2022/11/24 00:53:28;;;;;;;18.35;17.58;;;7.90;94.70;;;;;;5029026;28;20025;-76
2022/11/24 00:55:54;;;;;;;;;;;7.90;94.80;;;;;;5029372;28;20085;-75
2022/11/24 00:58:20;;;;;;;17.23;16.52;;;7.90;94.80;;;;;;5060942;28;19916;-76
2022/11/24 01:00:46;;;;;;;17.67;16.98;;;7.90;94.80;;;;;;5029346;28;20055;-75
2022/11/24 01:03:13;;;;;;;19.02;18.23;;;7.90;94.80;;;;;;5027844;28;20030;-75
2022/11/24 01:05:39;;;;;;;17.42;16.73;;;7.90;94.80;;;;;;5028856;28;20041;-76
2022/11/24 01:08:05;;;;;;;;;;;7.90;94.80;;;;;;5027969;28;20049;-76
2022/11/24 01:10:32;;;;;;;17.15;16.45;;;7.90;94.80;;;;;;5027502;28;19960;-75
2022/11/24 01:12:58;;;;;;;16.95;16.25;;;7.90;94.80;;;;;;5044160;28;20034;-75
2022/11/24 01:15:24;;;;;;;16.80;16.10;;;7.90;94.80;;;;;;5028352;28;20058;-76
2022/11/24 01:17:50;;;;;;;18.90;18.10;;;7.90;94.80;;;;;;5028430;28;20037;-76
2022/11/24 01:20:15;;;;;;;18.27;17.55;;;7.90;94.80;;;;;;5060554;28;20410;-75
2022/11/24 01:22:41;;;;;;;15.65;14.95;;;7.90;94.80;;;;;;5028566;28;20440;-75
2022/11/24 01:25:09;;;;;;;18.55;17.77;;;7.80;94.80;;;;;;5027149;28;20025;-76
2022/11/24 01:27:35;;;;;;;18.10;17.40;;;7.80;94.80;;;;;;5043817;28;20121;-76
2022/11/24 01:30:01;;;;;;;17.10;16.40;;;7.80;94.80;;;;;;5060555;28;20026;-77
2022/11/24 01:32:27;;;;;;;17.48;16.77;;;7.80;94.80;;;;;;5028242;28;20038;-77
2022/11/24 01:34:52;;;;;;;14.90;14.30;;;7.80;94.80;;;;;;5060051;28;20026;-77
2022/11/24 01:37:18;;;;;;;14.93;14.32;;;7.80;94.80;;;;;;5027353;28;20457;-76
2022/11/24 01:39:44;;;;;;;17.27;16.58;;;7.80;94.80;;;;;;5028118;28;20022;-76
2022/11/24 01:42:09;;;;;;;15.88;15.18;;;7.70;94.70;;;;;;5028063;28;20440;-76
2022/11/24 01:44:35;;;;;;;13.23;12.63;;;7.70;94.70;;;;;;5027915;28;20075;-76
2022/11/24 01:47:30;;;;;;;16.00;15.30;;;7.70;94.70;;;;;;5028005;28;20105;-76
2022/11/24 01:49:59;;;;;;;14.20;13.60;;;7.70;94.70;;;;;;5027955;28;20104;-76
2022/11/24 01:52:51;;;;;;;15.55;14.85;;;7.70;94.70;;;;;;5059724;28;20393;-77
2022/11/24 01:55:21;;;;;;;15.48;14.77;;;7.60;94.70;;;;;;5027750;28;20075;-76
2022/11/24 01:58:14;;;;;;;14.90;14.30;;;7.60;94.70;;;;;;5027759;28;20021;-77
2022/11/24 02:00:42;;;;;;;14.70;14.10;;;7.60;94.70;;;;;;5023525;28;20373;-76
2022/11/24 02:03:11;;;;;;;15.57;14.88;;;7.60;94.70;;;;;;5027898;28;20044;-82
2022/11/24 02:05:43;;;;;;;15.23;14.63;;;7.60;94.70;;;;;;5060131;28;20032;-81
2022/11/24 02:08:31;;;;;;;14.48;13.88;;;7.60;94.70;;;;;;5029676;28;20406;-81
2022/11/24 02:10:57;;;;;;;14.00;13.40;;;7.50;94.70;;;;;;5034079;28;20109;-80
2022/11/24 02:13:23;;;;;;;14.57;13.98;;;7.50;94.70;;;;;;5060030;28;20456;-81
2022/11/24 02:15:51;;;;;;;13.00;12.40;;;7.50;94.70;;;;;;5042879;28;20103;-82
2022/11/24 02:18:17;;;;;;;13.73;13.13;;;7.50;94.70;;;;;;5060055;28;20033;-81
2022/11/24 02:20:42;;;;;;;16.08;15.38;;;7.50;94.70;;;;;;5028755;28;20079;-81
2022/11/24 02:23:16;;;;;;;14.50;13.90;;;7.50;94.80;;;;;;5027763;28;20035;-81
2022/11/24 02:25:53;;;;;;;11.77;11.27;;;7.50;94.70;;;;;;5027847;28;20474;-81
2022/11/24 02:28:22;;;;;;;13.23;12.63;;;7.50;94.80;;;;;;5027796;28;20053;-81
2022/11/24 02:30:50;;;;;;;13.57;12.98;;;7.50;94.80;;;;;;5027762;28;20021;-81
2022/11/24 02:33:16;;;;;;;12.38;11.80;;;7.50;94.70;;;;;;5027626;28;20025;-81
2022/11/24 02:35:42;;;;;;;12.75;12.15;;;7.50;94.70;;;;;;5026309;28;20406;-81
2022/11/24 02:38:12;;;;;;;12.02;11.52;;;7.50;94.70;;;;;;5059767;28;20076;-81
2022/11/24 02:40:42;;;;;;;9.63;9.13;;;7.50;94.80;;;;;;5059533;28;20101;-81
2022/11/24 02:43:12;;;;;;;11.05;10.55;;;7.50;94.80;;;;;;5026230;28;20021;-81
2022/11/24 02:45:38;;;;;;;12.85;12.25;;;7.60;94.80;;;;;;5027645;28;20117;-81
2022/11/24 02:48:04;;;;;;;11.00;10.50;;;7.60;94.80;;;;;;5026466;28;20044;-81
2022/11/24 02:50:30;;;;;;;12.57;11.98;;;7.60;94.80;;;;;;5031583;28;20034;-81
2022/11/24 02:52:56;;;;;;;13.25;12.65;;;7.60;94.70;;;;;;5046994;28;20076;-77
2022/11/24 02:55:22;;;;;;;11.30;10.80;;;7.60;94.70;;;;;;5031145;28;20041;-76
2022/11/24 02:57:48;;;;;;;10.20;9.70;;;7.60;94.70;;;;;;5030840;28;20036;-76
2022/11/24 03:00:14;;;;;;;13.15;12.55;;;7.60;94.70;;;;;;5029869;28;20445;-76
2022/11/24 03:02:40;;;;;;;11.68;11.18;;;7.60;94.80;;;;;;5046311;28;20116;-76
2022/11/24 03:05:06;;;;;;;10.60;10.10;;;7.60;94.70;;;;;;5031142;28;20042;-76
2022/11/24 03:07:32;;;;;;;;;;;7.60;94.70;;;;;;5063239;28;20029;-76
2022/11/24 03:09:57;;;;;;;10.70;10.20;;;7.60;94.70;;;;;;5031327;28;19916;-79
2022/11/24 03:12:23;;;;;;;10.98;10.48;;;7.60;94.70;;;;;;5031389;28;20421;-79
2022/11/24 03:14:49;;;;;;;11.20;10.70;;;7.50;94.70;;;;;;5063258;28;20043;-79
2022/11/24 03:17:14;;;;;;;12.18;11.65;;;7.50;94.70;;;;;;5029819;28;20057;-79
2022/11/24 03:19:40;;;;;;;11.55;11.05;;;7.50;94.70;;;;;;5046415;28;20037;-79
2022/11/24 03:22:06;;;;;;;12.88;12.27;;;7.60;94.80;;;;;;5063071;28;20051;-79
2022/11/24 03:24:31;;;;;;;10.55;10.05;;;7.50;94.80;;;;;;5031042;28;20017;-79
2022/11/24 03:26:57;;;;;;;11.85;11.35;;;7.60;94.80;;;;;;5030896;28;20485;-79
2022/11/24 03:29:23;;;;;;;13.45;12.85;;;7.60;94.80;;;;;;5062766;28;20037;-79
2022/11/24 03:31:49;;;;;;;13.02;12.43;;;7.70;94.90;;;;;;5029687;28;20037;-79
2022/11/24 03:34:14;;;;;;;10.35;9.85;;;7.70;94.80;;;;;;5030735;28;20083;-79
2022/11/24 03:36:40;;;;;;;13.40;12.80;;;7.80;94.90;;;;;;5029481;28;20033;-79
2022/11/24 03:39:06;;;;;;;13.02;12.43;;;7.80;94.90;;;;;;5030841;28;20399;-79
2022/11/24 03:41:32;;;;;;;14.57;13.98;;;7.90;94.80;;;;;;5031764;28;20018;-79
2022/11/24 03:43:57;;;;;;;15.02;14.43;;;7.90;94.80;;;;;;5032200;28;20397;-79
2022/11/24 03:46:23;;;;;;;16.15;15.45;;;7.90;94.80;;;;;;5030654;28;20493;-79
2022/11/24 03:48:48;;;;;;;15.48;14.77;;;7.90;94.80;;;;;;5030918;28;20110;-79
2022/11/24 03:51:14;;;;;;;17.05;16.35;;;7.90;94.80;;;;;;5030489;28;20485;-78
2022/11/24 03:53:40;;;;;;;16.05;15.35;;;8.00;94.80;;;;;;5029250;28;20030;-79
2022/11/24 03:56:06;;;;;;;16.50;15.80;;;8.00;94.80;;;;;;5030311;28;20116;-79
2022/11/24 03:58:32;;;;;;;16.73;16.02;;;8.00;94.80;;;;;;5030540;28;20067;-79
2022/11/24 04:00:58;;;;;;;15.90;15.20;;;8.00;94.80;;;;;;5028431;28;20404;-79
2022/11/24 04:03:24;;;;;;;17.65;16.95;;;8.10;94.80;;;;;;5030373;28;20030;-79
2022/11/24 04:05:49;;;;;;;17.10;16.40;;;8.10;94.80;;;;;;5030259;28;20048;-79
2022/11/24 04:08:16;;;;;;;17.90;17.20;;;8.10;94.70;;;;;;5030283;28;20054;-79
2022/11/24 04:10:42;;;;;;;18.95;18.15;;;8.00;94.70;;;;;;5061772;28;20025;-76
2022/11/24 04:13:13;;;;;;;19.67;18.88;;;8.10;94.80;;;;;;5061612;28;20547;-76
2022/11/24 04:15:41;;;;;;;20.27;19.48;;;8.10;94.80;;;;;;5029333;28;20116;-76
2022/11/24 04:18:08;;;;;;;20.98;20.17;;;8.00;94.70;;;;;;5029656;28;20097;-76
2022/11/24 04:20:34;;;;;;;19.67;18.88;;;8.10;94.80;;;;;;5061581;28;20018;-76
2022/11/24 04:23:00;;;;;;;20.17;19.38;;;8.10;94.80;;;;;;5044867;28;20034;-76
2022/11/24 04:25:26;;;;;;;20.13;19.33;;;8.10;94.80;;;;;;5061455;28;20531;-76
2022/11/24 04:27:53;;;;;;;19.88;19.08;;;8.10;94.90;;;;;;5029521;28;20071;-76
2022/11/24 04:30:20;;;;;;;20.48;19.67;;;8.20;94.90;;;;;;5061250;28;20075;-76
2022/11/24 04:32:46;;;;;;;19.45;18.65;;;8.20;94.80;;;;;;5044753;28;20041;-76
2022/11/24 04:35:12;;;;;;;19.58;18.77;;;8.20;94.90;;;;;;5061193;28;20034;-75
2022/11/24 04:37:38;;;;;;;19.05;18.25;;;8.20;94.90;;;;;;5044657;28;20039;-75
2022/11/24 04:40:06;;;;;;;17.70;17.00;;;8.30;94.90;;;;;;5028193;28;20038;-75
2022/11/24 04:42:31;;;;;;;20.15;19.35;;;8.30;94.90;;;;;;5061334;28;20033;-75
2022/11/24 04:44:57;;;;;;;19.15;18.35;;;8.30;94.90;;;;;;5044580;28;20040;-75
2022/11/24 04:47:24;;;;;;;20.20;19.40;;;8.40;94.90;;;;;;5029138;28;20034;-75
2022/11/24 04:49:50;;;;;;;20.55;19.75;;;8.40;94.90;;;;;;5061182;28;20029;-75
2022/11/24 04:52:18;;;;;;;21.23;20.38;;;8.40;94.90;;;;;;5044361;28;20025;-75
2022/11/24 04:54:44;;;;;;;21.90;21.00;;;8.50;94.90;;;;;;5029107;28;20080;-75
2022/11/24 04:57:18;;;;;;;23.02;22.13;;;8.50;94.90;;;;;;5029014;28;20029;-75
2022/11/24 04:59:44;;;;;;;22.10;21.20;;;8.60;94.90;;;;;;5060921;28;20489;-75
2022/11/24 05:02:10;;;;;;;24.02;23.13;;;8.60;94.90;;;;;;5027699;28;20029;-75
2022/11/24 05:04:36;;;;;;;25.98;24.98;;;8.70;95.00;;;;;;5060603;28;20026;-74
2022/11/24 05:07:02;;;;;;;24.77;23.77;;;8.70;94.90;;;;;;5028739;28;20033;-75
2022/11/24 05:09:28;;;;;;;26.50;25.50;;;8.70;94.90;;;;;;5044117;28;20063;-75
2022/11/24 05:11:54;;;;;;;30.85;29.65;;;8.80;95.00;;;;;;5027478;28;20033;-74
2022/11/24 05:14:19;;;;;;;30.77;29.58;;;8.80;95.00;;;;;;5028682;28;20037;-75
2022/11/24 05:16:45;;;;;;;30.80;29.60;;;8.90;94.90;;;;;;5060291;28;20107;-74
2022/11/24 05:19:12;;;;;;;33.63;32.33;;;9.00;95.00;;;;;;5027382;28;20057;-74
2022/11/24 05:21:38;;;;;;;34.10;32.80;;;9.00;95.00;;;;;;5060333;28;20108;-75
2022/11/24 05:24:03;;;;;;;34.58;33.28;;;9.10;95.00;;;;;;5027065;28;20548;-75
2022/11/24 05:26:29;;;;;;;37.13;35.72;;;9.00;95.00;;;;;;5027233;28;20030;-75
2022/11/24 05:28:55;;;;;;;36.83;35.42;;;9.10;95.00;;;;;;5028348;28;20030;-75
2022/11/24 05:31:21;;;;;;;33.95;32.65;;;9.20;95.00;;;;;;5043766;28;20079;-75
2022/11/24 05:33:47;;;;;;;34.67;33.38;;;9.20;95.00;;;;;;5028248;28;20026;-75
2022/11/24 05:36:51;;;;;;;33.50;32.20;;;9.30;95.00;;;;;;5026840;28;20040;-75
2022/11/24 05:38:58;;;;;;;34.60;33.30;;;9.30;95.00;;;;;;5027028;28;20066;-75
2022/11/24 05:41:24;;;;;;;30.35;29.15;;;9.40;95.10;;;;;;5028229;28;20053;-74
2022/11/24 05:43:49;;;;;;;33.55;32.25;;;9.50;95.00;;;;;;5026826;28;20473;-75
2022/11/24 05:46:15;;;;;;;35.92;34.55;;;9.60;95.10;;;;;;5043194;28;20036;-75
2022/11/24 05:48:41;;;;;;;33.80;32.50;;;9.70;95.10;;;;;;5026621;28;20513;-75
2022/11/24 05:51:06;;;;;;;34.38;33.08;;;9.70;95.10;;;;;;5060156;28;20326;-76
2022/11/24 05:53:32;;;;;;;30.80;29.60;;;9.80;95.10;;;;;;5027829;28;20135;-76
2022/11/24 05:56:01;;;;;;;35.53;34.22;;;9.90;95.00;;;;;;5026510;28;20132;-76
2022/11/24 05:58:26;;;;;;;32.30;31.10;;;10.00;95.00;;;;;;5027594;28;20086;-76
2022/11/24 06:00:52;;;;;;;32.50;31.30;;;10.00;95.00;;;;;;5027758;28;20017;-75
2022/11/24 06:03:18;;;;;;;26.50;25.50;;;10.00;95.00;;;;;;5026421;28;20072;-76
2022/11/24 06:05:46;;;;;;;28.05;26.95;;;10.10;95.10;;;;;;5059535;28;20662;-76
2022/11/24 06:08:12;;;;;;;28.17;27.08;;;10.20;95.10;;;;;;5027622;28;20028;-76
2022/11/24 06:10:37;;;;;;;;;;;10.30;95.10;;;;;;5043336;28;20033;-76
2022/11/24 06:13:05;;;;;;;25.30;24.30;;;10.30;95.00;;;;;;5027671;28;20027;-76
2022/11/24 06:15:31;;;;;;;25.63;24.63;;;10.40;95.00;;;;;;5026074;28;20134;-76
2022/11/24 06:17:57;;;;;;;;;;;10.40;95.10;;;;;;5027803;28;20148;-76
2022/11/24 06:20:23;;;;;;;23.33;22.42;;;10.50;95.00;;;;;;5059567;28;20365;-76
2022/11/24 06:22:49;;;;;;;23.50;22.60;;;10.50;95.00;;;;;;5027176;28;20486;-76
2022/11/24 06:25:15;;;;;;;23.17;22.27;;;10.60;95.00;;;;;;5027224;28;20111;-76
2022/11/24 06:27:41;;;;;;;;;;;10.60;95.00;;;;;;5026590;28;20030;-76
2022/11/24 06:30:07;;;;;;;22.92;22.02;;;10.70;95.10;;;;;;5027411;28;20375;-76
2022/11/24 06:32:33;;;;;;;25.27;24.27;;;10.70;95.00;;;;;;5059318;28;20370;-76
2022/11/24 06:34:58;;;;;;;22.67;21.77;;;10.70;95.00;;;;;;5058971;28;20103;-76
2022/11/24 06:37:24;;;;;;;26.27;25.27;;;10.70;95.00;;;;;;5026011;28;20120;-76
2022/11/24 06:39:50;;;;;;;25.83;24.83;;;10.70;95.00;;;;;;5025978;28;20030;-76
2022/11/24 06:42:20;;;;;;;23.65;22.75;;;10.70;95.10;;;;;;5025972;28;20030;-80
2022/11/24 06:44:50;;;;;;;25.70;24.70;;;10.80;95.10;;;;;;5025991;28;20053;-80
2022/11/24 06:47:15;;;;;;;26.33;25.33;;;10.80;95.10;;;;;;5059190;28;20036;-80
2022/11/24 06:49:41;;;;;;;28.88;27.77;;;10.90;95.10;;;;;;5027228;28;20037;-80
2022/11/24 06:52:07;;;;;;;31.30;30.10;;;10.90;95.10;;;;;;5029230;28;20037;-80
2022/11/24 06:54:33;;;;;;;32.83;31.63;;;10.90;95.00;;;;;;5061440;28;20552;-80
2022/11/24 06:56:59;;;;;;;35.30;34.00;;;10.80;95.00;;;;;;5027362;28;20033;-80
2022/11/24 06:59:25;;;;;;;33.72;32.42;;;10.80;95.00;;;;;;5027272;28;20438;-80
2022/11/24 07:01:51;;;;;;;;;;;10.80;95.00;;;;;;5027817;28;20361;-80
2022/11/24 07:04:17;;;;;;;33.75;32.45;;;10.80;95.10;;;;;;5027041;28;19988;-79
2022/11/24 07:06:43;;;;;;;;;;;10.80;95.10;;;;;;5027644;28;20033;-80
2022/11/24 07:09:10;;;;;;;28.60;27.50;;;10.90;95.10;;;;;;5027543;28;19905;-80
2022/11/24 07:11:37;;;;;;;28.40;27.30;;;10.90;95.10;;;;;;5027024;28;20029;-80
2022/11/24 07:14:03;;;;;;;;;;;11.00;95.20;;;;;;5027336;28;20414;-79
2022/11/24 07:16:29;;;;;;;54.50;52.40;;;11.00;95.00;;;;;;5058564;28;19929;-79
2022/11/24 07:18:55;;;;;;;49.78;47.85;;;10.90;94.80;;;;;;5027383;28;20117;-78
2022/11/24 07:21:22;;;;;;;52.08;50.08;;;10.70;94.90;;;;;;5027228;28;20736;-79
2022/11/24 07:23:53;;;;;;;51.65;49.65;;;10.60;95.00;;;;;;5027076;28;20018;-79
2022/11/24 07:26:19;;;;;;;52.20;50.13;;;10.60;95.10;;;;;;5058691;28;20079;-78
2022/11/24 07:28:45;;;;;;;71.30;68.40;;;10.60;95.20;;;;;;5058749;28;20034;-80
2022/11/24 07:31:14;;;;;;;83.97;80.55;;;10.60;95.10;;;;;;5026970;28;20179;-80
2022/11/24 07:33:39;;;;;;;92.93;89.03;;;10.50;95.10;;;;;;5027016;28;20038;-80
2022/11/24 07:36:06;;;;;;;101.93;97.57;;;10.40;95.10;;;;;;5027347;28;20037;-80
2022/11/24 07:38:32;;;;;;;112.97;108.07;;;10.40;95.10;;;;;;5030882;28;20052;-81
2022/11/24 07:41:03;;;;;;;110.03;105.15;;;10.30;95.10;;;;;;5029764;28;20026;-81
2022/11/24 07:43:35;;;;;;;115.47;110.38;;;10.30;95.20;;;;;;5029646;28;20032;-81
2022/11/24 07:46:01;;;;;;;117.20;112.10;;;10.30;95.20;;;;;;5030652;28;20021;-80
2022/11/24 07:48:26;;;;;;;;;;;10.30;95.30;;;;;;5031102;28;20022;-81
2022/11/24 07:50:52;;;;;;;118.18;113.07;;;10.30;95.30;;;;;;5030742;28;19932;-81
2022/11/24 07:53:18;;;;;;;116.28;111.28;;;10.30;95.30;;;;;;5030672;28;20112;-78
2022/11/24 07:55:55;;;;;;;117.75;112.55;;;10.30;95.20;;;;;;5029054;28;20029;-80
2022/11/24 07:58:21;;;;;;;111.05;106.05;;;10.40;95.30;;;;;;5030405;28;20056;-79
2022/11/24 08:00:47;;;;;;;;;;;10.40;95.30;;;;;;5029658;28;20025;-80
2022/11/24 08:03:13;;;;;;;107.82;103.03;;;10.50;95.30;;;;;;5030935;28;19911;-80
2022/11/24 08:05:38;;;;;;;104.43;99.80;;;10.50;95.30;;;;;;5029081;28;20445;-80
2022/11/24 08:08:04;;;;;;;103.65;99.05;;;10.60;95.30;;;;;;5030938;28;20635;-80
2022/11/24 08:10:30;;;;;;;104.18;99.57;;;10.70;95.30;;;;;;5046110;28;20029;-79
2022/11/24 08:13:00;;;;;;;113.63;108.45;;;10.80;95.30;;;;;;5062796;28;20034;-78
2022/11/24 08:15:26;;;;;;;130.52;124.53;;;10.80;95.20;;;;;;5061990;28;20060;-80
2022/11/24 08:17:51;;;;;;;138.07;131.77;;;10.70;95.10;;;;;;5030516;28;20033;-80
2022/11/24 08:20:18;;;;;;;139.18;132.77;;;10.60;95.10;;;;;;5029611;28;20521;-80
2022/11/24 08:22:43;;;;;;;138.68;132.27;;;10.60;95.20;;;;;;5030301;28;20022;-80
2022/11/24 08:25:09;;;;;;;141.80;135.27;;;10.50;95.20;;;;;;5030113;28;20044;-80
2022/11/24 08:27:35;;;;;;;139.18;132.77;;;10.50;95.30;;;;;;5031039;28;20108;-80
2022/11/24 08:30:01;;;;;;;136.27;129.98;;;10.50;95.30;;;;;;5032500;28;20591;-80
2022/11/24 08:32:27;;;;;;;138.75;132.32;;;10.50;95.30;;;;;;5029728;28;20033;-80
2022/11/24 08:34:52;;;;;;;138.05;131.65;;;10.50;95.40;;;;;;5044919;28;20037;-80
2022/11/24 08:37:18;;;;;;;133.57;127.30;;;10.50;95.40;;;;;;5028138;28;20080;-79
2022/11/24 08:39:44;;;;;;;135.43;129.13;;;10.60;95.40;;;;;;5027865;28;20034;-77
2022/11/24 08:42:09;;;;;;;140.68;134.10;;;10.60;95.40;;;;;;5029631;28;20496;-79
2022/11/24 08:44:35;;;;;;;145.15;138.57;;;10.60;95.30;;;;;;5061226;28;20395;-80
2022/11/24 08:47:01;;;;;;;143.18;136.57;;;10.60;95.30;;;;;;5060310;28;20079;-79
2022/11/24 08:49:27;;;;;;;144.50;137.80;;;10.60;95.40;;;;;;5028903;28;20040;-81
2022/11/24 08:51:52;;;;;;;147.13;140.32;;;10.60;95.40;;;;;;5030901;28;20113;-79
2022/11/24 08:54:18;;;;;;;145.70;138.95;;;10.60;95.40;;;;;;5028496;28;20041;-80
2022/11/24 08:56:44;;;;;;;146.45;139.65;;;10.60;95.40;;;;;;5027700;28;20514;-79
2022/11/24 08:59:12;;;;;;;139.75;133.25;;;10.60;95.40;;;;;;5030055;28;20222;-80
2022/11/24 09:01:38;;;;;;;130.60;124.40;;;10.50;95.30;;;;;;5029111;28;20032;-78
2022/11/24 09:04:04;;;;;;;118.40;112.90;;;10.50;95.40;;;;;;5030225;28;20398;-79
2022/11/24 09:06:30;;;;;;;111.93;106.82;;;10.50;95.40;;;;;;5028563;28;20037;-81
2022/11/24 09:08:57;;;;;;;108.32;103.32;;;10.50;95.40;;;;;;5048529;28;20064;-78
2022/11/24 09:11:24;;;;;;;100.78;96.18;;;10.50;95.40;;;;;;5028485;28;20048;-78
2022/11/24 09:13:50;;;;;;;96.43;92.03;;;10.50;95.50;;;;;;5018257;28;20030;-82
2022/11/24 09:16:18;;;;;;;90.97;86.88;;;10.50;95.50;;;;;;5018341;28;20047;-79
2022/11/24 09:18:45;;;;;;;96.65;92.35;;;10.60;95.50;;;;;;5016007;28;20494;-80
2022/11/24 09:21:12;;;;;;;90.85;86.75;;;10.60;95.50;;;;;;5048726;28;20022;-79
2022/11/24 09:23:38;;;;;;;79.85;76.25;;;10.60;95.50;;;;;;5046762;28;20029;-79
2022/11/24 09:26:27;;;;;;;;;;;10.60;95.50;;;;;;5018069;28;20116;-78
2022/11/24 09:28:54;;;;;;;77.28;73.97;;;10.60;95.50;;;;;;5022810;28;20253;-79
2022/11/24 09:31:29;;;;;;;78.15;74.85;;;10.50;95.40;;;;;;5018280;28;20035;-79
2022/11/24 09:33:55;;;;;;;75.70;72.50;;;10.50;95.40;;;;;;5049088;28;20036;-79
2022/11/24 09:36:22;;;;;;;78.55;75.15;;;10.50;95.40;;;;;;5014683;28;20037;-80
2022/11/24 09:38:48;;;;;;;76.10;72.80;;;10.50;95.40;;;;;;5020781;28;20373;-79
2022/11/24 09:41:14;;;;;;;;;;;10.40;95.40;;;;;;5015515;28;20575;-79
2022/11/24 09:44:03;;;;;;;79.80;76.30;;;10.40;95.40;;;;;;5015700;28;19920;-78
2022/11/24 09:46:47;;;;;;;78.43;75.03;;;10.40;95.40;;;;;;5040587;28;20029;-79
2022/11/24 09:49:20;;;;;;;87.28;83.47;;;10.40;95.40;;;;;;5018088;28;20093;-79
2022/11/24 09:51:50;;;;;;;85.47;81.88;;;10.40;95.50;;;;;;5019625;28;20366;-79
2022/11/24 09:54:20;;;;;;;75.80;72.60;;;10.40;95.40;;;;;;5017912;28;20030;-80
2022/11/24 09:56:47;;;;;;;78.32;75.03;;;10.50;95.40;;;;;;5016419;28;20029;-79
2022/11/24 09:59:20;;;;;;;78.38;75.07;;;10.50;95.40;;;;;;5014852;28;20068;-79
2022/11/24 10:01:47;;;;;;;80.80;77.40;;;10.40;95.40;;;;;;5019334;28;20044;-78
2022/11/24 10:04:15;;;;;;;78.88;75.57;;;10.50;95.50;;;;;;5017341;28;20087;-78
2022/11/24 10:06:47;;;;;;;83.55;80.05;;;10.50;95.40;;;;;;5014630;28;20487;-78
2022/11/24 10:09:42;;;;;;;83.82;80.32;;;10.50;95.40;;;;;;5019864;28;20033;-78
2022/11/24 10:12:40;;;;;;;88.45;84.75;;;10.50;95.40;;;;;;5029054;28;20026;-79
2022/11/24 10:15:26;;;;;;;89.22;85.53;;;10.50;95.30;;;;;;5027645;28;20041;-79
2022/11/24 10:18:12;;;;;;;88.15;84.45;;;10.40;95.30;;;;;;5015240;28;20656;-80
2022/11/24 10:20:56;;;;;;;75.55;72.35;;;10.40;95.30;;;;;;5016784;28;20041;-81
2022/11/24 10:23:40;;;;;;;79.20;75.90;;;10.60;95.80;;;;;;5029046;28;20378;-81
2022/11/24 10:26:17;;;;;;;77.72;74.53;;;10.80;95.70;;;;;;5028907;28;20018;-81
2022/11/24 10:28:52;;;;;;;84.82;81.32;;;11.00;95.80;;;;;;5018933;28;20058;-81
2022/11/24 10:31:28;;;;;;;85.20;81.70;;;11.10;95.40;;;;;;5029673;28;20022;-82
2022/11/24 10:33:55;;;;;;;;;;;11.00;95.50;;;;;;5030324;28;20025;-80
2022/11/24 10:36:32;;;;;;;86.82;83.22;;;11.10;95.50;;;;;;5026462;28;19913;-81
2022/11/24 10:39:09;;;;;;;72.78;69.70;;;11.10;95.50;;;;;;5029605;28;20033;-80
2022/11/24 10:41:49;;;;;;;70.38;67.47;;;11.40;96.10;;;;;;5061646;28;20469;-81
2022/11/24 10:44:15;;;;;;;68.13;65.43;;;11.90;96.10;;;;;;5061214;28;20033;-79
2022/11/24 10:46:41;;;;;;;65.43;62.92;;;12.30;96.30;;;;;;5028173;28;20104;-79
2022/11/24 10:49:13;;;;;;;65.43;62.92;;;12.90;96.40;;;;;;4995017;28;20041;-82
2022/11/24 10:51:49;;;;;;;64.03;61.63;;;13.40;96.40;;;;;;5029386;28;20053;-81
2022/11/24 10:54:23;;;;;;;64.75;62.35;;;13.90;96.30;;;;;;5023554;28;20454;-80
2022/11/24 10:56:53;;;;;;;65.13;62.72;;;14.40;96.20;;;;;;5024373;28;20390;-81
2022/11/24 10:59:48;;;;;;;60.38;58.15;;;14.70;96.00;;;;;;5009651;28;20026;-81
2022/11/24 11:02:33;;;;;;;62.55;60.25;;;15.00;95.90;;;;;;5020221;28;20109;-80
2022/11/24 11:05:24;;;;;;;55.45;53.45;;;15.30;96.00;;;;;;5009932;28;20018;-76
2022/11/24 11:08:18;;;;;;;54.53;52.53;;;15.50;95.90;;;;;;5013461;28;20029;-78
2022/11/24 11:10:46;;;;;;;53.70;51.75;;;15.70;95.80;;;;;;5013098;28;20021;-74
2022/11/24 11:13:29;;;;;;;42.08;40.53;;;15.80;95.70;;;;;;5031641;28;20039;-81
2022/11/24 11:15:58;;;;;;;42.97;41.40;;;15.80;95.80;;;;;;5048093;28;20033;-82
2022/11/24 11:18:32;;;;;;;30.65;29.48;;;15.90;95.90;;;;;;5033275;28;20416;-83
2022/11/24 11:21:03;;;;;;;29.40;28.30;;;16.00;95.90;;;;;;5031755;28;20474;-81
2022/11/24 11:23:35;;;;;;;21.35;20.50;;;16.10;95.90;;;;;;5014779;28;20439;-83
2022/11/24 11:26:22;;;;;;;16.55;15.85;;;16.10;95.80;;;;;;5046541;28;20030;-78
2022/11/24 11:28:59;;;;;;;13.48;12.88;;;16.20;96.00;;;;;;5011636;28;20048;-79
2022/11/24 11:31:26;;;;;;;11.07;10.57;;;16.20;95.80;;;;;;5014408;28;20496;-78
2022/11/24 11:34:13;;;;;;;4.57;4.28;;;16.20;95.90;;;;;;5044734;28;20026;-76
2022/11/24 11:36:44;;;;;;;1.75;1.65;;;16.30;96.00;;;;;;5014177;28;20026;-78
2022/11/24 11:39:24;;;;;;;0.82;0.82;;;16.30;95.90;;;;;;5019085;28;20026;-78
2022/11/24 11:41:58;;;;;;;0.30;0.30;;;16.40;96.00;;;;;;5011547;28;20033;-76
2022/11/24 11:44:39;;;;;;;0.40;0.40;;;16.40;95.90;;;;;;5013570;28;20064;-79
2022/11/24 11:47:24;;;;;;;0.32;0.32;;;16.40;95.90;;;;;;5011752;28;20026;-81
2022/11/24 11:49:50;;;;;;;0.10;0.10;;;16.40;95.90;;;;;;5012427;28;20498;-80
2022/11/24 11:52:46;;;;;;;1.45;0.65;;;16.50;96.00;;;;;;5011276;28;20049;-79
2022/11/24 11:55:40;;;;;;;0.10;0.10;;;16.40;95.90;;;;;;5012052;28;20133;-79
2022/11/24 11:58:41;;;;;;;0.10;0.10;;;16.30;95.90;;;;;;5011388;28;20033;-83
2022/11/24 12:01:39;;;;;;;0.03;0.03;;;16.30;96.00;;;;;;5006360;28;20109;-80
2022/11/24 12:04:26;;;;;;;0.10;0.10;;;16.20;95.80;;;;;;4961752;28;20037;-81
2022/11/24 12:07:25;;;;;;;0.10;0.10;;;16.10;96.00;;;;;;5013784;28;20045;-82
2022/11/24 12:10:33;;;;;;;0.00;0.00;;;16.00;96.00;;;;;;5013269;28;20120;-80
2022/11/24 12:13:20;;;;;;;0.00;0.00;;;16.10;96.20;;;;;;5011241;28;20035;-83
2022/11/24 12:15:58;;;;;;;0.00;0.00;;;16.10;96.10;;;;;;5018260;28;20088;-82
2022/11/24 12:18:34;;;;;;;0.00;0.00;;;16.00;96.10;;;;;;5020547;28;20045;-82
2022/11/24 12:21:06;;;;;;;0.05;0.05;;;16.00;96.10;;;;;;5015575;28;20513;-81
2022/11/24 12:23:57;;;;;;;0.00;0.00;;;15.90;96.00;;;;;;5013913;28;20030;-81
2022/11/24 12:26:42;;;;;;;0.00;0.00;;;15.80;95.70;;;;;;5012952;28;20027;-82
2022/11/24 12:29:32;;;;;;;4.15;0.40;;;15.40;95.20;;;;;;5015212;28;20025;-83
2022/11/24 12:32:10;;;;;;;0.00;0.00;;;14.90;95.10;;;;;;5014606;28;20431;-83
2022/11/24 12:34:54;;;;;;;0.00;0.00;;;14.50;95.20;;;;;;5015508;28;20025;-82
2022/11/24 12:37:54;;;;;;;0.00;0.00;;;14.20;95.30;;;;;;5017649;28;20025;-84
2022/11/24 12:40:38;;;;;;;0.00;0.00;;;13.90;95.40;;;;;;5012759;28;20073;-85
2022/11/24 12:43:18;;;;;;;0.00;0.00;;;13.70;95.40;;;;;;5015632;28;20053;-85
2022/11/24 12:45:53;;;;;;;0.00;0.00;;;13.50;95.40;;;;;;5018339;28;20411;-83
2022/11/24 12:48:36;;;;;;;0.00;0.00;;;13.30;95.40;;;;;;5013318;28;20037;-84
2022/11/24 12:51:05;;;;;;;0.57;0.13;;;13.20;95.40;;;;;;5030005;28;20045;-84